createdAt,value
2016-06-14T00:00:19.006Z,24.42
2016-06-14T00:01:18.994Z,24.46
2016-06-14T00:02:19.029Z,24.48
2016-06-14T00:03:18.999Z,24.45
2016-06-14T00:04:19.019Z,24.48
2016-06-14T00:05:19.037Z,24.48
2016-06-14T00:06:19.041Z,24.46
2016-06-14T00:07:19.044Z,24.4
2016-06-14T00:08:19.047Z,24.45
2016-06-14T00:09:19.050Z,24.56
2016-06-14T00:10:19.053Z,24.48
2016-06-14T00:11:19.071Z,24.49
2016-06-14T00:12:19.091Z,24.52
2016-06-14T00:13:19.077Z,24.45
2016-06-14T00:14:19.158Z,24.45
2016-06-14T00:15:19.100Z,24.52
2016-06-14T00:16:19.102Z,24.54
2016-06-14T00:17:19.106Z,24.49
2016-06-14T00:18:19.109Z,24.51
2016-06-14T00:19:19.143Z,24.54
2016-06-14T00:20:19.131Z,24.46
2016-06-14T00:21:19.134Z,24.46
2016-06-14T00:22:19.137Z,24.48
2016-06-14T00:23:19.140Z,24.52
2016-06-14T00:24:19.158Z,24.49
2016-06-14T00:25:19.161Z,24.45
2016-06-14T00:26:19.180Z,24.48
2016-06-14T00:27:19.167Z,24.49
2016-06-14T00:28:19.170Z,24.52
2016-06-14T00:29:19.643Z,24.49
2016-06-14T00:30:19.223Z,24.49
2016-06-14T00:31:19.210Z,24.46
2016-06-14T00:32:19.214Z,24.44
2016-06-14T00:33:19.217Z,24.52
2016-06-14T00:34:19.219Z,24.48
2016-06-14T00:35:19.239Z,24.49
2016-06-14T00:36:19.242Z,24.51
2016-06-14T00:37:19.245Z,24.51
2016-06-14T00:38:19.107Z,24.42
2016-06-14T00:39:19.267Z,24.52
2016-06-14T00:40:19.271Z,24.45
2016-06-14T00:41:19.273Z,24.55
2016-06-14T00:42:19.276Z,24.54
2016-06-14T00:43:19.295Z,24.54
2016-06-14T00:44:19.595Z,24.52
2016-06-14T00:45:19.316Z,24.56
2016-06-14T00:46:19.304Z,24.52
2016-06-14T00:47:19.322Z,24.54
2016-06-14T00:48:19.326Z,24.48
2016-06-14T00:49:19.329Z,24.46
2016-06-14T00:50:19.348Z,24.54
2016-06-14T00:51:19.194Z,24.49
2016-06-14T00:52:19.354Z,24.48
2016-06-14T00:53:19.357Z,24.51
2016-06-14T00:54:19.376Z,24.49
2016-06-14T00:55:19.425Z,24.49
2016-06-14T00:56:19.398Z,24.51
2016-06-14T00:57:19.401Z,24.51
2016-06-14T00:58:19.403Z,24.51
2016-06-14T00:59:19.719Z,24.46
2016-06-14T01:00:19.425Z,24.54
2016-06-14T01:01:19.413Z,24.49
2016-06-14T01:02:19.275Z,24.52
2016-06-14T01:03:19.434Z,24.49
2016-06-14T01:04:19.437Z,24.44
2016-06-14T01:05:19.441Z,24.46
2016-06-14T01:06:19.459Z,24.45
2016-06-14T01:07:19.463Z,24.55
2016-06-14T01:08:19.481Z,24.49
2016-06-14T01:09:19.468Z,24.51
2016-06-14T01:10:19.472Z,24.55
2016-06-14T01:11:19.506Z,24.48
2016-06-14T01:12:19.493Z,24.4
2016-06-14T01:13:19.497Z,24.54
2016-06-14T01:14:20.078Z,24.46
2016-06-14T01:15:19.518Z,24.45
2016-06-14T01:16:19.520Z,24.49
2016-06-14T01:17:19.524Z,24.48
2016-06-14T01:18:19.544Z,24.48
2016-06-14T01:19:19.546Z,24.51
2016-06-14T01:20:19.549Z,24.4
2016-06-14T01:21:19.396Z,24.44
2016-06-14T01:22:19.556Z,24.4
2016-06-14T01:23:19.558Z,24.55
2016-06-14T01:24:19.577Z,24.48
2016-06-14T01:25:19.596Z,24.39
2016-06-14T01:26:19.443Z,24.51
2016-06-14T01:27:19.602Z,24.45
2016-06-14T01:28:19.605Z,24.49
2016-06-14T01:29:20.389Z,24.48
2016-06-14T01:30:20.377Z,24.51
2016-06-14T01:31:19.630Z,24.49
2016-06-14T01:32:19.633Z,24.42
2016-06-14T01:33:19.636Z,24.51
2016-06-14T01:34:19.654Z,24.37
2016-06-14T01:35:19.657Z,24.51
2016-06-14T01:36:19.677Z,24.51
2016-06-14T01:37:19.663Z,24.4
2016-06-14T01:38:19.682Z,24.49
2016-06-14T01:39:19.686Z,24.44
2016-06-14T01:40:19.689Z,24.39
2016-06-14T01:41:19.691Z,24.45
2016-06-14T01:42:19.695Z,24.49
2016-06-14T01:43:19.714Z,24.46
2016-06-14T01:44:19.717Z,24.4
2016-06-14T01:45:20.392Z,24.49
2016-06-14T01:46:19.738Z,24.44
2016-06-14T01:47:19.742Z,24.48
2016-06-14T01:48:19.744Z,24.4
2016-06-14T01:49:19.763Z,24.4
2016-06-14T01:50:19.766Z,24.45
2016-06-14T01:51:19.770Z,24.44
2016-06-14T01:52:19.788Z,24.49
2016-06-14T01:53:19.792Z,24.51
2016-06-14T01:54:19.809Z,24.45
2016-06-14T01:55:19.844Z,24.46
2016-06-14T01:56:19.801Z,24.44
2016-06-14T01:57:19.819Z,24.45
2016-06-14T01:58:19.822Z,24.46
2016-06-14T01:59:19.825Z,24.42
2016-06-14T02:00:19.969Z,24.44
2016-06-14T02:01:19.847Z,24.44
2016-06-14T02:02:19.850Z,24.44
2016-06-14T02:03:19.853Z,24.42
2016-06-14T02:04:19.888Z,24.52
2016-06-14T02:05:19.874Z,24.48
2016-06-14T02:06:19.878Z,24.39
2016-06-14T02:07:19.741Z,24.4
2016-06-14T02:08:19.884Z,24.4
2016-06-14T02:09:19.887Z,24.49
2016-06-14T02:10:19.906Z,24.4
2016-06-14T02:11:19.909Z,24.44
2016-06-14T02:12:19.912Z,24.46
2016-06-14T02:13:19.915Z,24.4
2016-06-14T02:14:19.935Z,24.39
2016-06-14T02:15:20.218Z,24.48
2016-06-14T02:16:19.940Z,24.46
2016-06-14T02:17:19.943Z,24.39
2016-06-14T02:18:19.978Z,24.37
2016-06-14T02:19:19.964Z,24.45
2016-06-14T02:20:19.967Z,24.48
2016-06-14T02:21:19.987Z,24.46
2016-06-14T02:22:19.989Z,24.42
2016-06-14T02:23:19.993Z,24.44
2016-06-14T02:24:19.996Z,24.46
2016-06-14T02:25:20.015Z,24.46
2016-06-14T02:26:20.018Z,24.4
2016-06-14T02:27:20.021Z,24.46
2016-06-14T02:28:20.039Z,24.45
2016-06-14T02:29:20.042Z,24.46
2016-06-14T02:30:20.061Z,24.45
2016-06-14T02:31:20.064Z,24.44
2016-06-14T02:32:20.067Z,24.46
2016-06-14T02:33:20.070Z,24.4
2016-06-14T02:34:20.074Z,24.45
2016-06-14T02:35:20.092Z,24.44
2016-06-14T02:36:20.079Z,24.48
2016-06-14T02:37:20.098Z,24.48
2016-06-14T02:38:20.101Z,24.44
2016-06-14T02:39:20.104Z,24.42
2016-06-14T02:40:20.123Z,24.44
2016-06-14T02:41:20.126Z,24.39
2016-06-14T02:42:20.114Z,24.37
2016-06-14T02:43:20.148Z,24.44
2016-06-14T02:44:20.136Z,24.46
2016-06-14T02:45:20.155Z,24.45
2016-06-14T02:46:20.157Z,24.44
2016-06-14T02:47:20.176Z,24.4
2016-06-14T02:48:20.179Z,24.37
2016-06-14T02:49:20.182Z,24.48
2016-06-14T02:50:20.185Z,24.39
2016-06-14T02:51:20.220Z,24.44
2016-06-14T02:52:20.207Z,24.42
2016-06-14T02:53:20.210Z,24.49
2016-06-14T02:54:20.057Z,24.39
2016-06-14T02:55:20.388Z,24.44
2016-06-14T02:56:20.236Z,24.48
2016-06-14T02:57:20.081Z,24.44
2016-06-14T02:58:20.241Z,24.42
2016-06-14T02:59:20.260Z,24.4
2016-06-14T03:00:20.575Z,24.37
2016-06-14T03:01:20.110Z,24.42
2016-06-14T03:02:20.269Z,24.44
2016-06-14T03:03:20.288Z,24.4
2016-06-14T03:04:20.291Z,24.39
2016-06-14T03:05:20.372Z,24.42
2016-06-14T03:06:20.312Z,24.42
2016-06-14T03:07:20.301Z,24.44
2016-06-14T03:08:20.318Z,24.39
2016-06-14T03:09:20.321Z,24.37
2016-06-14T03:10:20.324Z,24.42
2016-06-14T03:11:20.343Z,24.37
2016-06-14T03:12:20.347Z,24.4
2016-06-14T03:13:20.350Z,24.37
2016-06-14T03:14:20.352Z,24.42
2016-06-14T03:15:20.449Z,24.39
2016-06-14T03:16:20.359Z,24.46
2016-06-14T03:17:20.221Z,24.48
2016-06-14T03:18:20.381Z,24.33
2016-06-14T03:19:20.384Z,24.48
2016-06-14T03:20:20.402Z,24.37
2016-06-14T03:21:20.405Z,24.4
2016-06-14T03:22:20.408Z,24.46
2016-06-14T03:23:20.411Z,24.36
2016-06-14T03:24:20.275Z,24.39
2016-06-14T03:25:20.433Z,24.44
2016-06-14T03:26:20.452Z,24.33
2016-06-14T03:27:20.456Z,24.34
2016-06-14T03:28:20.459Z,24.37
2016-06-14T03:29:20.461Z,24.39
2016-06-14T03:30:20.465Z,24.36
2016-06-14T03:31:20.482Z,24.39
2016-06-14T03:32:20.486Z,24.48
2016-06-14T03:33:20.489Z,24.37
2016-06-14T03:34:20.492Z,24.44
2016-06-14T03:35:20.526Z,24.44
2016-06-14T03:36:20.514Z,24.34
2016-06-14T03:37:20.517Z,24.33
2016-06-14T03:38:20.365Z,24.37
2016-06-14T03:39:20.524Z,24.36
2016-06-14T03:40:20.542Z,24.42
2016-06-14T03:41:20.544Z,24.33
2016-06-14T03:42:20.547Z,24.4
2016-06-14T03:43:20.567Z,24.36
2016-06-14T03:44:20.570Z,24.33
2016-06-14T03:45:20.261Z,24.36
2016-06-14T03:46:20.592Z,24.39
2016-06-14T03:47:20.595Z,24.37
2016-06-14T03:48:20.582Z,24.3
2016-06-14T03:49:20.648Z,24.44
2016-06-14T03:50:20.604Z,24.33
2016-06-14T03:51:20.607Z,24.37
2016-06-14T03:52:20.610Z,24.42
2016-06-14T03:53:20.628Z,24.42
2016-06-14T03:54:20.648Z,24.37
2016-06-14T03:55:20.651Z,24.34
2016-06-14T03:56:20.653Z,24.33
2016-06-14T03:57:20.657Z,24.39
2016-06-14T03:58:20.660Z,24.4
2016-06-14T03:59:20.663Z,24.33
2016-06-14T04:00:20.416Z,24.36
2016-06-14T04:01:20.685Z,24.34
2016-06-14T04:02:20.688Z,24.33
2016-06-14T04:03:20.706Z,24.3
2016-06-14T04:04:20.726Z,24.39
2016-06-14T04:05:20.712Z,24.33
2016-06-14T04:06:20.715Z,24.39
2016-06-14T04:07:20.734Z,24.4
2016-06-14T04:08:20.738Z,24.4
2016-06-14T04:09:20.741Z,24.39
2016-06-14T04:10:20.743Z,24.4
2016-06-14T04:11:20.278Z,24.46
2016-06-14T04:12:20.765Z,24.42
2016-06-14T04:13:20.768Z,24.37
2016-06-14T04:14:20.787Z,24.32
2016-06-14T04:15:21.181Z,24.4
2016-06-14T04:16:20.840Z,24.33
2016-06-14T04:17:20.796Z,24.37
2016-06-14T04:18:20.799Z,24.37
2016-06-14T04:19:20.819Z,24.33
2016-06-14T04:20:20.822Z,24.36
2016-06-14T04:21:20.824Z,24.4
2016-06-14T04:22:20.828Z,24.4
2016-06-14T04:23:20.845Z,24.44
2016-06-14T04:24:20.849Z,24.39
2016-06-14T04:25:20.852Z,24.37
2016-06-14T04:26:20.855Z,24.34
2016-06-14T04:27:20.858Z,24.44
2016-06-14T04:28:20.878Z,24.45
2016-06-14T04:29:20.880Z,24.44
2016-06-14T04:30:21.195Z,24.39
2016-06-14T04:31:20.887Z,24.36
2016-06-14T04:32:20.906Z,24.34
2016-06-14T04:33:20.908Z,24.4
2016-06-14T04:34:20.927Z,24.34
2016-06-14T04:35:20.915Z,24.4
2016-06-14T04:36:20.932Z,24.3
2016-06-14T04:37:20.951Z,24.33
2016-06-14T04:38:20.939Z,24.42
2016-06-14T04:39:20.942Z,24.4
2016-06-14T04:40:20.961Z,24.37
2016-06-14T04:41:20.964Z,24.39
2016-06-14T04:42:20.967Z,24.44
2016-06-14T04:43:21.001Z,24.4
2016-06-14T04:44:20.988Z,24.46
2016-06-14T04:45:21.007Z,24.4
2016-06-14T04:46:20.994Z,24.32
2016-06-14T04:47:20.998Z,24.44
2016-06-14T04:48:21.017Z,24.34
2016-06-14T04:49:21.035Z,24.3
2016-06-14T04:50:21.039Z,24.42
2016-06-14T04:51:21.026Z,24.42
2016-06-14T04:52:20.904Z,24.44
2016-06-14T04:53:21.048Z,24.39
2016-06-14T04:54:21.051Z,24.33
2016-06-14T04:55:21.054Z,24.33
2016-06-14T04:56:21.072Z,24.37
2016-06-14T04:57:21.076Z,24.45
2016-06-14T04:58:21.078Z,24.42
2016-06-14T04:59:21.097Z,24.4
2016-06-14T05:00:20.944Z,24.46
2016-06-14T05:01:21.104Z,24.39
2016-06-14T05:02:21.123Z,24.46
2016-06-14T05:03:21.126Z,24.45
2016-06-14T05:04:21.144Z,24.46
2016-06-14T05:05:21.147Z,24.46
2016-06-14T05:06:21.150Z,24.45
2016-06-14T05:07:21.153Z,24.45
2016-06-14T05:08:21.172Z,24.4
2016-06-14T05:09:21.190Z,24.42
2016-06-14T05:10:21.178Z,24.48
2016-06-14T05:11:21.182Z,24.39
2016-06-14T05:12:21.185Z,24.45
2016-06-14T05:13:21.188Z,24.42
2016-06-14T05:14:21.206Z,24.49
2016-06-14T05:15:21.272Z,24.4
2016-06-14T05:16:21.244Z,24.52
2016-06-14T05:17:21.231Z,24.49
2016-06-14T05:18:21.234Z,24.52
2016-06-14T05:19:21.346Z,24.54
2016-06-14T05:20:21.240Z,24.54
2016-06-14T05:21:21.243Z,24.48
2016-06-14T05:22:21.262Z,24.52
2016-06-14T05:23:21.265Z,24.56
2016-06-14T05:24:21.269Z,24.52
2016-06-14T05:25:21.272Z,24.51
2016-06-14T05:26:21.993Z,24.46
2016-06-14T05:27:21.277Z,24.45
2016-06-14T05:28:21.718Z,24.49
2016-06-14T05:29:21.315Z,24.48
2016-06-14T05:30:21.943Z,24.48
2016-06-14T05:31:21.320Z,24.48
2016-06-14T05:32:21.324Z,24.51
2016-06-14T05:33:21.343Z,24.54
2016-06-14T05:34:21.330Z,24.51
2016-06-14T05:35:21.380Z,24.54
2016-06-14T05:36:21.556Z,24.44
2016-06-14T05:37:21.636Z,24.54
2016-06-14T05:38:21.687Z,24.59
2016-06-14T05:39:21.501Z,24.59
2016-06-14T05:40:21.395Z,24.58
2016-06-14T05:41:21.383Z,24.64
2016-06-14T05:42:21.402Z,24.54
2016-06-14T05:43:21.405Z,24.56
2016-06-14T05:44:21.814Z,24.59
2016-06-14T05:45:22.364Z,24.56
2016-06-14T05:46:22.570Z,24.59
2016-06-14T05:47:21.870Z,24.59
2016-06-14T05:48:21.685Z,24.64
2016-06-14T05:49:21.846Z,24.66
2016-06-14T05:50:21.441Z,24.59
2016-06-14T05:51:22.070Z,24.56
2016-06-14T05:52:21.948Z,24.75
2016-06-14T05:53:21.983Z,24.63
2016-06-14T05:54:21.860Z,24.59
2016-06-14T05:55:22.020Z,24.75
2016-06-14T05:56:21.507Z,24.71
2016-06-14T05:57:21.495Z,24.69
2016-06-14T05:58:21.513Z,24.75
2016-06-14T05:59:21.516Z,24.75
2016-06-14T06:00:22.785Z,24.74
2016-06-14T06:01:22.147Z,24.7
2016-06-14T06:02:21.838Z,24.74
2016-06-14T06:03:21.811Z,24.74
2016-06-14T06:04:21.564Z,24.78
2016-06-14T06:05:21.566Z,24.78
2016-06-14T06:06:21.570Z,24.74
2016-06-14T06:07:21.573Z,24.67
2016-06-14T06:08:21.591Z,24.71
2016-06-14T06:09:21.594Z,24.8
2016-06-14T06:10:21.597Z,24.77
2016-06-14T06:11:21.616Z,24.66
2016-06-14T06:12:21.619Z,24.77
2016-06-14T06:13:21.544Z,24.75
2016-06-14T06:14:21.640Z,24.82
2016-06-14T06:15:22.909Z,24.77
2016-06-14T06:16:22.616Z,24.78
2016-06-14T06:17:25.931Z,24.71
2016-06-14T06:18:22.403Z,24.83
2016-06-14T06:19:23.359Z,24.83
2016-06-14T06:20:22.174Z,24.77
2016-06-14T06:21:23.069Z,24.78
2016-06-14T06:22:22.837Z,24.77
2016-06-14T06:23:22.278Z,24.8
2016-06-14T06:24:22.656Z,24.75
2016-06-14T06:25:22.128Z,24.8
2016-06-14T06:26:22.115Z,24.77
2016-06-14T06:27:23.790Z,24.85
2016-06-14T06:28:22.419Z,24.87
2016-06-14T06:29:22.452Z,24.86
2016-06-14T06:30:21.987Z,24.87
2016-06-14T06:31:23.678Z,24.87
2016-06-14T06:32:22.259Z,24.85
2016-06-14T06:33:22.153Z,24.86
2016-06-14T06:34:21.577Z,24.85
2016-06-14T06:35:21.674Z,24.87
2016-06-14T06:36:23.427Z,24.9
2016-06-14T06:37:22.102Z,24.9
2016-06-14T06:38:21.808Z,24.92
2016-06-14T06:39:22.077Z,24.92
2016-06-14T06:40:22.330Z,24.94
2016-06-14T06:41:22.473Z,24.93
2016-06-14T06:42:22.431Z,24.92
2016-06-14T06:43:22.339Z,24.9
2016-06-14T06:44:22.936Z,24.92
2016-06-14T06:45:22.793Z,24.94
2016-06-14T06:46:22.648Z,24.92
2016-06-14T06:47:22.096Z,24.96
2016-06-14T06:48:23.076Z,24.92
2016-06-14T06:49:23.385Z,24.94
2016-06-14T06:50:23.176Z,24.92
2016-06-14T06:51:23.005Z,24.94
2016-06-14T06:52:22.632Z,24.96
2016-06-14T06:53:23.290Z,25
2016-06-14T06:54:22.760Z,24.93
2016-06-14T06:55:22.741Z,24.94
2016-06-14T06:56:23.061Z,24.94
2016-06-14T06:57:23.771Z,24.94
2016-06-14T06:58:23.249Z,24.92
2016-06-14T06:59:23.351Z,24.93
2016-06-14T07:00:23.044Z,24.93
2016-06-14T07:01:23.705Z,24.89
2016-06-14T07:02:25.429Z,24.93
2016-06-14T07:03:23.605Z,24.87
2016-06-14T07:04:23.205Z,24.93
2016-06-14T07:05:24.052Z,24.89
2016-06-14T07:06:22.915Z,24.86
2016-06-14T07:07:23.028Z,24.92
2016-06-14T07:08:22.845Z,24.85
2016-06-14T07:09:24.628Z,24.9
2016-06-14T07:10:25.413Z,24.87
2016-06-14T07:12:06.761Z,24.87
2016-06-14T07:12:22.514Z,24.83
2016-06-14T07:13:24.470Z,24.86
2016-06-14T07:14:24.943Z,24.85
2016-06-14T07:15:24.118Z,24.87
2016-06-14T07:16:25.496Z,24.87
2016-06-14T07:17:24.733Z,24.78
2016-06-14T07:18:24.424Z,24.85
2016-06-14T07:19:24.381Z,24.92
2016-06-14T07:20:24.477Z,24.85
2016-06-14T07:21:23.715Z,24.89
2016-06-14T07:22:24.452Z,24.78
2016-06-14T07:23:25.627Z,24.75
2016-06-14T07:24:25.958Z,24.75
2016-06-14T07:25:24.993Z,24.78
2016-06-14T07:27:31.342Z,24.86
2016-06-14T07:27:44.905Z,24.75
2016-06-14T07:28:47.002Z,24.83
2016-06-14T07:29:47.395Z,24.86
2016-06-14T07:31:18.070Z,24.75
2016-06-14T07:31:48.042Z,24.74
2016-06-14T07:33:13.624Z,24.8
2016-06-14T07:33:47.439Z,24.83
2016-06-14T07:34:47.191Z,24.8
2016-06-14T07:35:44.570Z,24.83
2016-06-14T07:36:44.339Z,24.87
2016-06-14T07:37:44.341Z,24.75
2016-06-14T07:38:44.360Z,24.77
2016-06-14T07:39:44.348Z,24.74
2016-06-14T07:40:44.664Z,24.77
2016-06-14T07:41:44.385Z,24.71
2016-06-14T07:42:44.076Z,24.7
2016-06-14T07:43:44.391Z,24.75
2016-06-14T07:44:44.394Z,24.82
2016-06-14T07:45:44.414Z,24.83
2016-06-14T07:46:45.135Z,24.77
2016-06-14T07:47:44.419Z,24.85
2016-06-14T07:48:44.439Z,24.85
2016-06-14T07:49:44.426Z,24.78
2016-06-14T07:50:44.569Z,24.82
2016-06-14T07:51:44.463Z,24.8
2016-06-14T07:52:44.466Z,24.75
2016-06-14T07:53:44.750Z,24.7
2016-06-14T07:54:44.472Z,24.78
2016-06-14T07:55:44.475Z,24.87
2016-06-14T07:56:44.525Z,24.75
2016-06-14T07:57:44.482Z,24.78
2016-06-14T07:58:44.531Z,24.75
2016-06-14T07:59:44.503Z,24.89
2016-06-14T08:00:44.522Z,24.78
2016-06-14T08:01:44.524Z,24.89
2016-06-14T08:02:48.247Z,24.96
2016-06-14T08:03:44.547Z,24.97
2016-06-14T08:04:45.097Z,25
2016-06-14T08:05:45.787Z,25
2016-06-14T08:06:45.446Z,24.92
2016-06-14T08:07:46.684Z,25.05
2016-06-14T08:08:45.796Z,25.01
2016-06-14T08:09:46.409Z,25.01
2016-06-14T08:10:45.490Z,25.01
2016-06-14T08:11:49.103Z,25.04
2016-06-14T08:12:45.965Z,25.02
2016-06-14T08:13:46.155Z,25.08
2016-06-14T08:14:44.861Z,25.02
2016-06-14T08:15:46.162Z,25.07
2016-06-14T08:16:47.102Z,25.04
2016-06-14T08:17:45.855Z,25.08
2016-06-14T08:18:46.296Z,25.08
2016-06-14T08:19:46.346Z,25.11
2016-06-14T08:20:45.193Z,25.12
2016-06-14T08:21:46.055Z,25.15
2016-06-14T08:22:49.918Z,25.14
2016-06-14T08:23:45.749Z,25.08
2016-06-14T08:24:46.018Z,25.17
2016-06-14T08:25:45.661Z,25.09
2016-06-14T08:26:46.570Z,25.15
2016-06-14T08:27:45.417Z,25.19
2016-06-14T08:28:44.952Z,25.2
2016-06-14T08:29:45.580Z,25.12
2016-06-14T08:30:45.832Z,25.2
2016-06-14T08:31:45.336Z,25.17
2016-06-14T08:32:46.136Z,25.19
2016-06-14T08:33:45.904Z,25.15
2016-06-14T08:34:45.861Z,25.15
2016-06-14T08:35:44.958Z,25.19
2016-06-14T08:36:46.195Z,25.14
2016-06-14T08:37:45.807Z,25.15
2016-06-14T08:38:45.357Z,25.2
2016-06-14T08:39:45.235Z,25.2
2016-06-14T08:40:46.707Z,25.17
2016-06-14T08:41:46.211Z,25.12
2016-06-14T08:42:46.198Z,25.11
2016-06-14T08:43:47.497Z,25.15
2016-06-14T08:44:49.251Z,25.19
2016-06-14T08:45:45.378Z,25.17
2016-06-14T08:46:46.335Z,25.17
2016-06-14T08:47:45.526Z,25.12
2016-06-14T08:48:45.623Z,25.11
2016-06-14T08:49:46.235Z,25.12
2016-06-14T08:50:46.442Z,25.08
2016-06-14T08:51:46.757Z,25.11
2016-06-14T08:52:46.463Z,25.07
2016-06-14T08:53:45.606Z,25.04
2016-06-14T08:54:46.454Z,25.12
2016-06-14T08:55:46.472Z,25.07
2016-06-14T08:56:46.054Z,25.07
2016-06-14T08:57:45.838Z,25.01
2016-06-14T08:58:47.309Z,25.12
2016-06-14T08:59:46.969Z,25.14
2016-06-14T09:00:45.706Z,25.05
2016-06-14T09:01:46.163Z,25.15
2016-06-14T09:02:46.150Z,25.05
2016-06-14T09:03:45.262Z,25.04
2016-06-14T09:04:46.234Z,25.07
2016-06-14T09:05:45.518Z,25.07
2016-06-14T09:06:45.943Z,25.12
2016-06-14T09:07:46.260Z,25.12
2016-06-14T09:08:46.028Z,25.07
2016-06-14T09:09:47.077Z,25.09
2016-06-14T09:10:46.080Z,25.07
2016-06-14T09:11:45.271Z,25.09
2016-06-14T09:12:45.915Z,25.09
2016-06-14T09:13:45.981Z,25.12
2016-06-14T09:14:45.218Z,25.11
2016-06-14T09:15:45.909Z,24.97
2016-06-14T09:16:45.912Z,25.07
2016-06-14T09:17:45.555Z,25.02
2016-06-14T09:18:46.261Z,25.07
2016-06-14T09:19:45.702Z,25.04
2016-06-14T09:20:45.425Z,25.08
2016-06-14T09:21:45.286Z,25.08
2016-06-14T09:22:45.399Z,25.11
2016-06-14T09:23:45.277Z,25.05
2016-06-14T09:24:45.890Z,25.09
2016-06-14T09:25:45.143Z,25.07
2016-06-14T09:26:45.146Z,25.02
2016-06-14T09:27:45.149Z,25.07
2016-06-14T09:28:45.167Z,25.08
2016-06-14T09:29:45.170Z,25.05
2016-06-14T09:30:45.189Z,25
2016-06-14T09:31:45.973Z,25.15
2016-06-14T09:32:45.195Z,25.07
2016-06-14T09:33:45.199Z,25.01
2016-06-14T09:34:45.201Z,25.08
2016-06-14T09:35:45.220Z,24.97
2016-06-14T09:36:45.583Z,25.04
2016-06-14T09:37:45.227Z,25.05
2016-06-14T09:38:45.245Z,25.05
2016-06-14T09:39:45.264Z,25.09
2016-06-14T09:40:45.250Z,25.02
2016-06-14T09:41:45.739Z,25.08
2016-06-14T09:42:45.789Z,25.08
2016-06-14T09:43:45.792Z,25.07
2016-06-14T09:44:45.764Z,25.09
2016-06-14T09:45:45.204Z,25
2016-06-14T09:46:46.333Z,25.11
2016-06-14T09:47:45.444Z,25.07
2016-06-14T09:48:46.135Z,25.05
2016-06-14T09:49:45.857Z,25.07
2016-06-14T09:50:45.703Z,25.04
2016-06-14T09:51:45.692Z,25.04
2016-06-14T09:52:45.834Z,25.12
2016-06-14T09:53:46.041Z,25.07
2016-06-14T09:54:46.044Z,25.09
2016-06-14T09:55:45.985Z,25.05
2016-06-14T09:56:46.144Z,25.04
2016-06-14T09:57:45.678Z,25.04
2016-06-14T09:58:45.744Z,25.05
2016-06-14T09:59:46.216Z,25.12
2016-06-14T10:00:46.687Z,25.09
2016-06-14T10:01:45.410Z,25.12
2016-06-14T10:02:46.226Z,25.17
2016-06-14T10:03:45.696Z,25.15
2016-06-14T10:09:42.793Z,25.3
2016-06-14T10:10:43.187Z,25.32
2016-06-14T10:11:43.393Z,25.3
2016-06-14T10:12:42.490Z,25.33
2016-06-14T10:13:43.024Z,25.37
2016-06-14T10:14:42.668Z,25.38
2016-06-14T10:15:42.686Z,25.38
2016-06-14T10:16:42.611Z,25.38
2016-06-14T10:17:43.584Z,25.38
2016-06-14T10:18:42.696Z,25.37
2016-06-14T10:19:42.964Z,25.34
2016-06-14T10:20:43.046Z,25.41
2016-06-14T10:21:46.424Z,25.33
2016-06-14T10:22:43.287Z,25.33
2016-06-14T10:23:43.461Z,25.38
2016-06-14T10:24:43.386Z,25.37
2016-06-14T10:25:43.249Z,25.3
2016-06-14T10:26:45.439Z,25.38
2016-06-14T10:27:44.224Z,25.34
2016-06-14T10:28:43.836Z,25.39
2016-06-14T10:29:44.151Z,25.38
2016-06-14T10:30:44.279Z,25.38
2016-06-14T10:31:43.642Z,25.37
2016-06-14T10:32:46.083Z,25.39
2016-06-14T10:33:44.383Z,25.33
2016-06-14T10:34:44.838Z,25.32
2016-06-14T10:35:44.014Z,25.39
2016-06-14T10:36:44.298Z,25.38
2016-06-14T10:37:44.004Z,25.37
2016-06-14T10:38:45.320Z,25.37
2016-06-14T10:39:44.668Z,25.37
2016-06-14T10:40:43.701Z,25.33
2016-06-14T10:41:44.610Z,25.32
2016-06-14T10:42:43.879Z,25.32
2016-06-14T10:43:44.258Z,25.33
2016-06-14T10:44:50.073Z,25.34
2016-06-14T10:45:44.122Z,25.37
2016-06-14T10:46:44.517Z,25.33
2016-06-14T10:47:45.253Z,25.33
2016-06-14T10:48:43.756Z,25.3
2016-06-14T10:49:43.885Z,25.29
2016-06-14T10:50:44.138Z,25.3
2016-06-14T10:51:44.282Z,25.33
2016-06-14T10:52:44.082Z,25.3
2016-06-14T10:53:45.164Z,25.34
2016-06-14T10:54:45.291Z,25.3
2016-06-14T10:55:44.169Z,25.33
2016-06-14T10:56:44.813Z,25.29
2016-06-14T10:57:44.003Z,25.24
2016-06-14T10:58:46.428Z,25.29
2016-06-14T10:59:44.321Z,25.23
2016-06-14T11:00:43.435Z,25.22
2016-06-14T11:01:43.047Z,25.27
2016-06-14T11:02:43.722Z,25.27
2016-06-14T11:03:43.756Z,25.2
2016-06-14T11:04:44.056Z,25.17
2016-06-14T11:05:43.794Z,25.2
2016-06-14T11:06:43.109Z,25.23
2016-06-14T11:07:43.643Z,25.17
2016-06-14T11:08:43.928Z,25.15
2016-06-14T11:09:43.181Z,25.14
2016-06-14T11:10:43.184Z,25.22
2016-06-14T11:11:43.077Z,25.19
2016-06-14T11:12:43.080Z,25.19
2016-06-14T11:13:43.099Z,25.15
2016-06-14T11:14:43.118Z,25.14
2016-06-14T11:15:43.137Z,25.14
2016-06-14T11:16:43.233Z,25.15
2016-06-14T11:17:43.393Z,25.15
2016-06-14T11:18:43.646Z,25.14
2016-06-14T11:19:44.071Z,25.17
2016-06-14T11:20:43.622Z,25.17
2016-06-14T11:21:43.389Z,25.14
2016-06-14T11:22:43.190Z,25.14
2016-06-14T11:23:43.193Z,25.2
2016-06-14T11:24:43.180Z,25.14
2016-06-14T11:25:43.184Z,25.17
2016-06-14T11:26:43.202Z,25.11
2016-06-14T11:27:43.189Z,25.19
2016-06-14T11:28:43.458Z,25.17
2016-06-14T11:29:43.055Z,25.11
2016-06-14T11:30:43.214Z,25.23
2016-06-14T11:31:43.561Z,25.15
2016-06-14T11:32:43.595Z,25.2
2016-06-14T11:33:43.239Z,25.19
2016-06-14T11:34:43.258Z,25.24
2016-06-14T11:35:43.682Z,25.14
2016-06-14T11:36:43.265Z,25.14
2016-06-14T11:37:43.252Z,25.14
2016-06-14T11:38:43.271Z,25.17
2016-06-14T11:39:43.274Z,25.15
2016-06-14T11:40:43.291Z,25.09
2016-06-14T11:41:43.295Z,25.08
2016-06-14T11:42:43.361Z,25.2
2016-06-14T11:43:43.411Z,25.09
2016-06-14T11:44:43.523Z,25.2
2016-06-14T11:45:44.776Z,25.12
2016-06-14T11:46:45.185Z,25.08
2016-06-14T11:47:44.594Z,25.15
2016-06-14T11:48:44.551Z,25.15
2016-06-14T11:49:44.930Z,25.17
2016-06-14T11:50:44.479Z,25.15
2016-06-14T11:51:44.826Z,25.17
2016-06-14T11:52:44.767Z,25.09
2016-06-14T11:53:44.722Z,25.08
2016-06-14T11:54:44.570Z,25.15
2016-06-14T11:55:44.463Z,25.14
2016-06-14T11:56:43.403Z,25.14
2016-06-14T11:57:43.610Z,25.11
2016-06-14T11:58:43.410Z,25.11
2016-06-14T11:59:43.788Z,25.05
2016-06-14T12:00:43.463Z,25.04
2016-06-14T12:01:43.512Z,25.08
2016-06-14T12:02:43.438Z,25.01
2016-06-14T12:03:44.019Z,25.04
2016-06-14T12:04:43.476Z,25.07
2016-06-14T12:05:43.478Z,25.12
2016-06-14T12:06:43.481Z,25.09
2016-06-14T12:07:43.485Z,25.04
2016-06-14T12:08:43.488Z,25.07
2016-06-14T12:09:43.506Z,25.02
2016-06-14T12:10:43.369Z,25.04
2016-06-14T12:11:43.372Z,25.11
2016-06-14T12:12:43.546Z,25.02
2016-06-14T12:13:43.534Z,25.04
2016-06-14T12:14:43.538Z,25.04
2016-06-14T12:15:43.540Z,25.08
2016-06-14T12:16:43.669Z,25.04
2016-06-14T12:17:44.046Z,25.09
2016-06-14T12:18:43.565Z,25.07
2016-06-14T12:19:43.567Z,25.04
2016-06-14T12:20:43.603Z,25.12
2016-06-14T12:21:43.590Z,25.11
2016-06-14T12:22:43.593Z,25.04
2016-06-14T12:23:43.595Z,25.12
2016-06-14T12:24:43.615Z,25.07
2016-06-14T12:25:43.619Z,25.15
2016-06-14T12:26:43.621Z,25.14
2016-06-14T12:27:43.624Z,25.11
2016-06-14T12:28:44.111Z,25.15
2016-06-14T12:29:43.645Z,25.09
2016-06-14T12:30:43.492Z,25.14
2016-06-14T12:31:43.948Z,25.14
2016-06-14T12:32:44.890Z,25.12
2016-06-14T12:33:43.658Z,25.14
2016-06-14T12:34:43.677Z,25.09
2016-06-14T12:35:43.727Z,25.15
2016-06-14T12:36:43.699Z,25.17
2016-06-14T12:37:43.703Z,25.11
2016-06-14T12:38:43.689Z,25.14
2016-06-14T12:39:43.723Z,25.09
2016-06-14T12:40:43.758Z,25.07
2016-06-14T12:41:43.729Z,25.04
2016-06-14T12:42:43.732Z,25.07
2016-06-14T12:43:43.736Z,25.12
2016-06-14T12:44:44.505Z,25.09
2016-06-14T12:45:43.820Z,25.07
2016-06-14T12:46:43.855Z,25.11
2016-06-14T12:47:43.779Z,25.05
2016-06-14T12:48:43.783Z,25.11
2016-06-14T12:49:43.785Z,25.11
2016-06-14T12:50:43.883Z,25.15
2016-06-14T12:51:43.885Z,25.12
2016-06-14T12:52:43.810Z,25.14
2016-06-14T12:53:43.813Z,25.11
2016-06-14T12:54:43.973Z,25.04
2016-06-14T12:55:43.883Z,25.12
2016-06-14T12:56:44.448Z,25.11
2016-06-14T12:57:44.451Z,25.07
2016-06-14T12:58:44.423Z,25.12
2016-06-14T12:59:44.160Z,25.09
2016-06-14T13:00:43.866Z,25.12